createdAt,value
2023-05-13T00:00:18.383Z,455.2308
2023-05-13T00:01:19.711Z,456.3846
2023-05-13T00:02:21.267Z,458.6154
2023-05-13T00:03:22.711Z,457.9231
2023-05-13T00:04:24.134Z,458.6923
2023-05-13T00:05:25.440Z,456.7692
2023-05-13T00:06:26.985Z,453.1538
2023-05-13T00:07:28.286Z,453.6154
2023-05-13T00:08:29.894Z,454.7692
2023-05-13T00:09:31.210Z,456.1538
2023-05-13T00:10:32.665Z,455.6923
2023-05-13T00:11:33.977Z,454.9231
2023-05-13T00:12:35.512Z,456.3846
2023-05-13T00:13:36.919Z,456.2308
2023-05-13T00:14:38.324Z,454.0769
2023-05-13T00:15:39.742Z,452.4615
2023-05-13T00:16:41.299Z,452.9231
2023-05-13T00:17:42.545Z,455.5385
2023-05-13T00:18:44.057Z,458.5385
2023-05-13T00:19:45.407Z,458.6154
2023-05-13T00:20:56.873Z,456.8182
2023-05-13T00:21:57.764Z,453.3077
2023-05-13T00:22:59.164Z,452.2308
2023-05-13T00:24:00.626Z,450.8462
2023-05-13T00:25:02.008Z,451.1538
2023-05-13T00:26:03.376Z,453.4615
2023-05-13T00:27:04.877Z,453.0769
2023-05-13T00:28:06.219Z,451.8462
2023-05-13T00:29:07.755Z,451.4615
2023-05-13T00:30:09.206Z,452.8462
2023-05-13T00:31:10.533Z,453.1538
2023-05-13T00:32:12.019Z,453.0769
2023-05-13T00:33:13.390Z,454.9231
2023-05-13T00:34:14.821Z,453.5385
2023-05-13T00:35:16.247Z,453.1538
2023-05-13T00:36:17.667Z,453.0769
2023-05-13T00:37:19.079Z,453.7692
2023-05-13T00:38:20.467Z,456.6923
2023-05-13T00:39:21.839Z,459.2308
2023-05-13T00:40:23.641Z,458.0000
2023-05-13T00:41:24.779Z,455.8462
2023-05-13T00:42:26.230Z,455.8462
2023-05-13T00:43:27.637Z,457.6923
2023-05-13T00:44:29.111Z,457.1538
2023-05-13T00:45:30.488Z,456.1538
2023-05-13T00:46:31.872Z,455.0000
2023-05-13T00:47:33.312Z,454.8462
2023-05-13T00:48:34.693Z,453.3077
2023-05-13T00:49:36.156Z,452.5385
2023-05-13T00:50:37.618Z,453.4615
2023-05-13T00:51:39.020Z,455.6154
2023-05-13T00:52:40.374Z,456.5385
2023-05-13T00:53:41.833Z,454.6923
2023-05-13T00:54:43.318Z,453.1538
2023-05-13T00:55:44.746Z,454.3077
2023-05-13T00:56:46.187Z,454.1538
2023-05-13T00:57:47.512Z,451.8462
2023-05-13T00:58:48.902Z,452.3077
2023-05-13T00:59:50.376Z,453.9231
2023-05-13T01:00:51.752Z,453.0769
2023-05-13T01:01:53.241Z,452.0769
2023-05-13T01:02:54.799Z,455.3846
2023-05-13T01:03:56.031Z,456.3077
2023-05-13T01:04:57.516Z,456.1538
2023-05-13T01:05:58.947Z,454.4615
2023-05-13T01:07:00.365Z,455.6154
2023-05-13T01:08:01.644Z,456.8462
2023-05-13T01:09:03.179Z,456.8462
2023-05-13T01:10:04.580Z,457.0000
2023-05-13T01:11:06.025Z,456.6154
2023-05-13T01:12:07.458Z,452.9231
2023-05-13T01:13:08.883Z,453.2308
2023-05-13T01:14:10.275Z,452.3846
2023-05-13T01:15:11.699Z,451.7692
2023-05-13T01:16:13.056Z,453.3846
2023-05-13T01:17:14.570Z,455.4615
2023-05-13T01:18:16.001Z,456.7692
2023-05-13T01:19:17.503Z,457.0000
2023-05-13T01:20:18.989Z,458.4615
2023-05-13T01:21:20.273Z,459.2308
2023-05-13T01:22:21.799Z,458.0769
2023-05-13T01:23:23.227Z,456.3846
2023-05-13T01:24:24.658Z,455.5385
2023-05-13T01:25:26.011Z,455.3846
2023-05-13T01:26:27.475Z,454.0000
2023-05-13T01:27:28.953Z,453.7692
2023-05-13T01:28:30.391Z,452.6923
2023-05-13T01:29:31.756Z,454.3846
2023-05-13T01:30:33.150Z,455.8462
2023-05-13T01:31:34.586Z,454.7692
2023-05-13T01:32:36.128Z,453.3077
2023-05-13T01:33:37.452Z,452.3077
2023-05-13T01:34:38.856Z,453.1538
2023-05-13T01:35:40.246Z,452.6154
2023-05-13T01:36:41.725Z,453.6923
2023-05-13T01:37:43.131Z,454.8462
2023-05-13T01:38:44.597Z,452.4615
2023-05-13T01:39:45.968Z,452.0769
2023-05-13T01:40:47.495Z,451.4615
2023-05-13T01:41:48.885Z,453.0000
2023-05-13T01:42:50.337Z,455.8462
2023-05-13T01:43:51.681Z,457.1538
2023-05-13T01:44:53.193Z,456.0769
2023-05-13T01:45:54.507Z,455.7692
2023-05-13T01:46:55.960Z,455.3846
2023-05-13T01:47:57.550Z,457.3846
2023-05-13T01:48:58.849Z,457.6154
2023-05-13T01:50:00.310Z,456.0000
2023-05-13T01:51:01.655Z,454.7692
2023-05-13T01:52:03.113Z,455.3846
2023-05-13T01:53:04.500Z,455.3077
2023-05-13T01:54:05.933Z,456.0000
2023-05-13T01:55:07.265Z,453.0000
2023-05-13T01:56:08.736Z,451.6154
2023-05-13T01:57:10.240Z,452.2308
2023-05-13T01:58:11.712Z,452.8462
2023-05-13T01:59:13.039Z,455.5385
2023-05-13T02:00:14.453Z,456.1538
2023-05-13T02:01:16.046Z,456.6154
2023-05-13T02:02:17.381Z,456.6923
2023-05-13T02:03:18.955Z,456.0769
2023-05-13T02:04:20.248Z,458.8462
2023-05-13T02:05:21.586Z,459.0769
2023-05-13T02:06:23.023Z,458.1538
2023-05-13T02:07:24.453Z,457.0000
2023-05-13T02:08:25.836Z,457.3077
2023-05-13T02:09:27.317Z,456.9231
2023-05-13T02:10:28.708Z,455.6154
2023-05-13T02:11:30.240Z,454.3077
2023-05-13T02:12:31.626Z,454.1538
2023-05-13T02:13:33.044Z,455.4615
2023-05-13T02:14:34.350Z,454.7692
2023-05-13T02:15:35.875Z,453.6923
2023-05-13T02:16:37.268Z,454.0769
2023-05-13T02:17:38.788Z,454.1538
2023-05-13T02:18:40.176Z,454.4615
2023-05-13T02:19:41.580Z,454.6154
2023-05-13T02:20:42.941Z,453.0769
2023-05-13T02:21:44.426Z,454.2308
2023-05-13T02:22:45.801Z,454.3846
2023-05-13T02:23:47.311Z,453.6154
2023-05-13T02:24:48.709Z,453.5385
2023-05-13T02:25:50.090Z,454.4615
2023-05-13T02:26:51.501Z,458.3077
2023-05-13T02:27:52.841Z,456.6923
2023-05-13T02:28:55.371Z,452.6923
2023-05-13T02:29:55.841Z,452.2308
2023-05-13T02:30:57.279Z,453.1538
2023-05-13T02:31:58.623Z,452.0769
2023-05-13T02:32:59.991Z,451.0769
2023-05-13T02:34:01.530Z,451.1538
2023-05-13T02:35:02.953Z,451.9231
2023-05-13T02:36:04.306Z,453.2308
2023-05-13T02:37:05.822Z,453.0000
2023-05-13T02:38:07.073Z,452.6923
2023-05-13T02:39:08.665Z,451.8462
2023-05-13T02:40:10.036Z,453.0769
2023-05-13T02:41:11.503Z,455.3077
2023-05-13T02:42:12.882Z,454.0000
2023-05-13T02:43:14.322Z,454.3846
2023-05-13T02:44:15.756Z,454.7692
2023-05-13T02:45:17.170Z,450.2308
2023-05-13T02:46:18.571Z,448.0769
2023-05-13T02:47:19.919Z,449.0769
2023-05-13T02:48:21.455Z,452.3846
2023-05-13T02:49:22.884Z,454.0769
2023-05-13T02:50:24.477Z,453.0769
2023-05-13T02:51:25.692Z,451.2308
2023-05-13T02:52:27.155Z,453.5385
2023-05-13T02:53:28.709Z,454.1538
2023-05-13T02:54:29.943Z,455.5385
2023-05-13T02:55:31.512Z,456.3846
2023-05-13T02:56:32.966Z,456.6154
2023-05-13T02:57:34.274Z,458.0000
2023-05-13T02:58:35.726Z,456.0769
2023-05-13T02:59:37.131Z,454.5385
2023-05-13T03:00:38.595Z,454.1538
2023-05-13T03:01:39.959Z,456.3846
2023-05-13T03:02:41.405Z,457.0769
2023-05-13T03:03:42.811Z,457.0000
2023-05-13T03:04:44.286Z,456.3077
2023-05-13T03:05:45.728Z,455.0000
2023-05-13T03:06:47.162Z,453.7692
2023-05-13T03:07:48.519Z,455.9231
2023-05-13T03:08:49.985Z,456.6154
2023-05-13T03:09:51.376Z,456.2308
2023-05-13T03:10:52.884Z,457.3846
2023-05-13T03:11:54.164Z,457.6923
2023-05-13T03:12:55.695Z,457.3077
2023-05-13T03:13:57.132Z,453.6154
2023-05-13T03:14:58.545Z,452.0769
2023-05-13T03:15:59.946Z,451.5385
2023-05-13T03:17:01.358Z,451.2308
2023-05-13T03:18:02.743Z,449.3846
2023-05-13T03:19:04.271Z,450.8462
2023-05-13T03:20:06.045Z,455.1538
2023-05-13T03:21:07.076Z,457.4615
2023-05-13T03:22:08.542Z,457.6154
2023-05-13T03:23:09.903Z,458.0769
2023-05-13T03:24:11.242Z,458.1538
2023-05-13T03:25:12.830Z,456.9231
2023-05-13T03:26:14.206Z,455.8462
2023-05-13T03:27:15.497Z,456.3077
2023-05-13T03:28:17.022Z,455.3077
2023-05-13T03:29:18.555Z,455.4615
2023-05-13T03:30:20.026Z,458.6923
2023-05-13T03:31:21.339Z,457.7692
2023-05-13T03:32:22.771Z,457.9231
2023-05-13T03:33:24.127Z,457.2308
2023-05-13T03:34:25.616Z,457.0000
2023-05-13T03:35:27.020Z,455.9231
2023-05-13T03:36:28.576Z,457.2308
2023-05-13T03:37:29.794Z,456.5385
2023-05-13T03:38:31.310Z,457.4615
2023-05-13T03:39:32.743Z,455.9231
2023-05-13T03:40:34.235Z,457.0000
2023-05-13T03:41:35.674Z,455.6154
2023-05-13T03:42:37.011Z,454.3077
2023-05-13T03:43:38.448Z,458.0769
2023-05-13T03:44:39.933Z,458.6154
2023-05-13T03:45:41.344Z,457.8462
2023-05-13T03:46:42.803Z,455.8462
2023-05-13T03:47:44.166Z,456.4615
2023-05-13T03:48:45.563Z,458.3077
2023-05-13T03:49:46.950Z,454.9231
2023-05-13T03:50:48.473Z,454.1538
2023-05-13T03:51:49.875Z,456.5385
2023-05-13T03:52:51.266Z,458.0000
2023-05-13T03:53:52.749Z,454.6154
2023-05-13T03:54:54.133Z,455.1538
2023-05-13T03:55:55.579Z,455.6923
2023-05-13T03:56:56.998Z,457.4615
2023-05-13T03:57:58.415Z,457.1538
2023-05-13T03:58:59.912Z,457.7692
2023-05-13T04:00:01.269Z,456.1538
2023-05-13T04:01:02.774Z,457.9231
2023-05-13T04:02:04.148Z,453.2308
2023-05-13T04:03:05.629Z,453.3077
2023-05-13T04:04:06.928Z,454.6154
2023-05-13T04:05:08.518Z,454.2308
2023-05-13T04:06:09.816Z,455.3077
2023-05-13T04:07:11.333Z,453.8462
2023-05-13T04:08:12.645Z,454.3077
2023-05-13T04:09:14.088Z,453.1538
2023-05-13T04:10:15.949Z,453.7692
2023-05-13T04:11:16.968Z,454.0769
2023-05-13T04:12:18.402Z,455.9231
2023-05-13T04:13:19.862Z,456.2308
2023-05-13T04:14:21.205Z,455.9231
2023-05-13T04:15:22.675Z,455.9231
2023-05-13T04:16:24.205Z,454.9231
2023-05-13T04:17:25.587Z,452.3846
2023-05-13T04:18:26.966Z,451.8462
2023-05-13T04:19:28.377Z,453.2308
2023-05-13T04:20:29.781Z,450.0769
2023-05-13T04:21:31.239Z,450.5385
2023-05-13T04:22:33.350Z,450.1538
2023-05-13T04:23:34.085Z,451.2308
2023-05-13T04:24:35.499Z,451.8462
2023-05-13T04:25:36.919Z,450.3846
2023-05-13T04:26:38.412Z,450.6923
2023-05-13T04:27:39.896Z,450.6923
2023-05-13T04:28:41.132Z,454.1538
2023-05-13T04:29:42.552Z,454.7692
2023-05-13T04:30:44.122Z,455.6923
2023-05-13T04:31:45.649Z,453.0000
2023-05-13T04:32:47.039Z,451.5385
2023-05-13T04:33:48.402Z,452.8462
2023-05-13T04:34:49.807Z,453.9231
2023-05-13T04:35:51.216Z,457.0000
2023-05-13T04:36:52.595Z,456.0000
2023-05-13T04:37:54.170Z,456.2308
2023-05-13T04:38:55.513Z,456.3846
2023-05-13T04:39:56.923Z,456.6154
2023-05-13T04:40:58.345Z,457.4615
2023-05-13T04:41:59.828Z,457.5385
2023-05-13T04:43:01.264Z,455.9231
2023-05-13T04:44:02.621Z,456.5385
2023-05-13T04:45:04.122Z,456.7692
2023-05-13T04:46:05.404Z,457.6154
2023-05-13T04:47:06.990Z,453.8462
2023-05-13T04:48:08.323Z,452.2308
2023-05-13T04:49:09.779Z,453.3077
2023-05-13T04:50:11.276Z,458.3846
2023-05-13T04:51:12.660Z,459.4615
2023-05-13T04:52:14.128Z,458.7692
2023-05-13T04:53:15.522Z,458.5385
2023-05-13T04:54:16.920Z,455.2308
2023-05-13T04:55:18.376Z,455.1538
2023-05-13T04:56:19.808Z,454.2308
2023-05-13T04:57:21.194Z,452.9231
2023-05-13T04:58:22.675Z,452.1538
2023-05-13T04:59:24.138Z,451.9231
2023-05-13T05:00:25.477Z,457.2308
2023-05-13T05:01:27.019Z,459.0769
2023-05-13T05:02:29.421Z,460.4615
2023-05-13T05:03:29.882Z,458.4615
2023-05-13T05:04:31.194Z,458.0769
2023-05-13T05:05:32.549Z,456.5385
2023-05-13T05:06:34.045Z,455.8462
2023-05-13T05:07:35.535Z,457.0769
2023-05-13T05:08:36.955Z,458.3077
2023-05-13T05:09:38.399Z,458.0000
2023-05-13T05:10:39.844Z,460.7692
2023-05-13T05:11:41.232Z,458.8462
2023-05-13T05:12:42.684Z,456.4615
2023-05-13T05:13:44.164Z,457.3077
2023-05-13T05:14:45.518Z,456.3846
2023-05-13T05:15:46.894Z,458.6154
2023-05-13T05:16:48.543Z,458.4615
2023-05-13T05:17:49.904Z,457.9231
2023-05-13T05:18:51.282Z,456.6154
2023-05-13T05:19:52.724Z,457.3846
2023-05-13T05:20:54.277Z,455.1538
2023-05-13T05:21:55.508Z,454.0769
2023-05-13T05:22:57.078Z,453.5385
2023-05-13T05:23:58.522Z,453.7692
2023-05-13T05:24:59.892Z,452.7692
2023-05-13T05:26:11.325Z,454.6923
2023-05-13T05:27:02.689Z,451.3333
2023-05-13T05:28:04.164Z,450.7692
2023-05-13T05:29:05.665Z,453.0000
2023-05-13T05:30:07.018Z,454.8462
2023-05-13T05:31:08.520Z,456.3077
2023-05-13T05:32:09.852Z,458.0769
2023-05-13T05:33:11.199Z,455.2308
2023-05-13T05:34:12.702Z,454.0000
2023-05-13T05:35:14.104Z,454.2308
2023-05-13T05:36:15.537Z,454.6154
2023-05-13T05:37:16.973Z,455.9231
2023-05-13T05:38:19.387Z,455.6154
2023-05-13T05:39:19.880Z,454.0000
2023-05-13T05:40:21.489Z,454.4615
2023-05-13T05:41:22.687Z,456.3077
2023-05-13T05:42:24.094Z,455.3077
2023-05-13T05:43:25.397Z,453.6154
2023-05-13T05:44:26.965Z,453.7692
2023-05-13T05:45:28.372Z,455.2308
2023-05-13T05:46:29.828Z,455.7692
2023-05-13T05:47:31.234Z,456.6154
2023-05-13T05:48:34.354Z,458.2308
2023-05-13T05:49:34.105Z,458.8462
2023-05-13T05:50:35.521Z,456.4615
2023-05-13T05:51:36.909Z,455.4615
2023-05-13T05:52:38.393Z,456.1538
2023-05-13T05:53:39.790Z,455.0000
2023-05-13T05:54:41.211Z,453.2308
2023-05-13T05:55:42.582Z,451.0769
2023-05-13T05:56:44.090Z,451.8462
2023-05-13T05:57:45.483Z,453.3846
2023-05-13T05:58:46.911Z,455.2308
2023-05-13T05:59:48.381Z,455.7692
2023-05-13T06:00:49.820Z,455.5385
2023-05-13T06:01:51.210Z,454.4615
2023-05-13T06:02:52.701Z,455.5385
2023-05-13T06:03:55.048Z,456.0000
2023-05-13T06:04:55.490Z,455.4615
2023-05-13T06:05:56.827Z,455.2308
2023-05-13T06:06:58.340Z,455.7692
2023-05-13T06:07:59.747Z,455.0000
2023-05-13T06:09:01.170Z,454.3846
2023-05-13T06:10:02.541Z,454.5385
2023-05-13T06:11:03.893Z,454.5385
2023-05-13T06:12:05.383Z,455.4615
2023-05-13T06:13:06.911Z,453.2308
2023-05-13T06:14:08.336Z,452.9231
2023-05-13T06:15:09.811Z,453.3077
2023-05-13T06:16:11.052Z,454.2308
2023-05-13T06:17:12.568Z,455.0769
2023-05-13T06:18:14.009Z,455.8462
2023-05-13T06:19:15.457Z,454.9231
2023-05-13T06:20:16.836Z,453.7692
2023-05-13T06:21:18.309Z,452.2308
2023-05-13T06:22:19.626Z,450.3077
2023-05-13T06:23:21.090Z,449.9231
2023-05-13T06:24:22.526Z,450.6923
2023-05-13T06:25:23.986Z,450.3846
2023-05-13T06:26:25.332Z,452.5385
2023-05-13T06:27:26.806Z,455.0769
2023-05-13T06:28:28.182Z,455.0769
2023-05-13T06:29:29.645Z,456.8462
2023-05-13T06:30:31.029Z,457.2308
2023-05-13T06:31:32.463Z,457.1538
2023-05-13T06:32:33.887Z,458.3846
2023-05-13T06:33:35.368Z,459.3846
2023-05-13T06:34:36.760Z,455.7692
2023-05-13T06:35:38.211Z,452.4615
2023-05-13T06:36:39.516Z,451.3846
2023-05-13T06:37:40.969Z,451.0000
2023-05-13T06:38:42.383Z,450.0769
2023-05-13T06:39:43.878Z,453.1538
2023-05-13T06:40:45.293Z,455.3077
2023-05-13T06:41:46.686Z,454.6923
2023-05-13T06:42:48.126Z,456.0769
2023-05-13T06:43:49.463Z,457.6154
2023-05-13T06:44:50.983Z,455.1538
2023-05-13T06:45:52.354Z,451.7692
2023-05-13T06:46:53.720Z,449.8462
2023-05-13T06:47:55.185Z,447.5385
2023-05-13T06:48:56.616Z,445.2308
2023-05-13T06:49:58.086Z,445.2308
2023-05-13T06:50:59.600Z,446.0769
2023-05-13T06:52:00.908Z,446.3077
2023-05-13T06:53:02.282Z,444.6154
2023-05-13T06:54:03.734Z,443.3846
2023-05-13T06:55:05.226Z,444.6154
2023-05-13T06:56:06.619Z,446.0000
2023-05-13T06:57:07.973Z,444.9231
2023-05-13T06:58:09.432Z,444.6923
2023-05-13T06:59:10.878Z,443.0769
2023-05-13T07:00:12.264Z,441.5385
2023-05-13T07:01:13.716Z,441.7692
2023-05-13T07:02:15.123Z,440.5385
2023-05-13T07:03:16.627Z,442.3846
2023-05-13T07:04:18.047Z,444.7692
2023-05-13T07:05:19.415Z,444.3077
2023-05-13T07:06:20.855Z,443.8462
2023-05-13T07:07:22.203Z,443.2308
2023-05-13T07:08:23.724Z,441.6154
2023-05-13T07:09:25.073Z,440.6154
2023-05-13T07:10:26.546Z,441.5385
2023-05-13T07:11:28.005Z,441.6923
2023-05-13T07:12:29.444Z,441.0000
2023-05-13T07:13:30.805Z,439.6154
2023-05-13T07:14:32.205Z,439.2308
2023-05-13T07:15:33.608Z,437.0769
2023-05-13T07:16:35.110Z,439.9231
2023-05-13T07:17:36.533Z,442.8462
2023-05-13T07:18:37.948Z,443.0769
2023-05-13T07:19:39.297Z,440.9231
2023-05-13T07:20:40.774Z,437.3077
2023-05-13T07:21:42.237Z,437.7692
2023-05-13T07:22:43.591Z,437.2308
2023-05-13T07:23:45.057Z,437.9231
2023-05-13T07:24:46.466Z,438.8462
2023-05-13T07:25:47.917Z,439.3077
2023-05-13T07:26:49.377Z,438.3846
2023-05-13T07:27:50.726Z,435.3846
2023-05-13T07:28:52.143Z,433.7692
2023-05-13T07:29:53.479Z,432.5385
2023-05-13T07:30:55.153Z,435.0000
2023-05-13T07:31:56.493Z,435.1538
2023-05-13T07:32:58.103Z,436.0000
2023-05-13T07:33:59.248Z,438.3077
2023-05-13T07:35:00.712Z,436.5385
2023-05-13T07:36:02.063Z,435.9231
2023-05-13T07:37:03.556Z,434.5385
2023-05-13T07:38:04.971Z,433.2308
2023-05-13T07:39:07.108Z,431.6923
2023-05-13T07:40:07.773Z,431.8462
2023-05-13T07:41:09.281Z,432.8462
2023-05-13T07:42:10.728Z,432.0769
2023-05-13T07:43:12.209Z,429.3846
2023-05-13T07:44:13.384Z,429.7692
2023-05-13T07:45:15.020Z,431.0769
2023-05-13T07:46:16.280Z,430.2308
2023-05-13T07:47:17.839Z,430.1538
2023-05-13T07:48:19.293Z,431.8462
2023-05-13T07:49:20.516Z,431.9231
2023-05-13T07:50:22.052Z,434.5385
2023-05-13T07:51:23.511Z,430.6154
2023-05-13T07:52:24.897Z,431.0769
2023-05-13T07:53:26.339Z,431.2308
2023-05-13T07:54:27.762Z,430.9231
2023-05-13T07:55:29.183Z,432.4615
2023-05-13T07:56:30.630Z,431.2308
2023-05-13T07:57:32.098Z,429.6923
2023-05-13T07:58:33.360Z,427.6923
2023-05-13T07:59:34.926Z,427.9231
2023-05-13T08:00:36.370Z,428.0000
2023-05-13T08:01:37.760Z,428.5385
2023-05-13T08:02:39.318Z,427.7692
2023-05-13T08:03:40.818Z,424.9231
2023-05-13T08:04:42.092Z,424.6154
2023-05-13T08:05:43.398Z,426.5385
2023-05-13T08:06:44.839Z,426.6923
2023-05-13T08:07:46.321Z,428.9231
2023-05-13T08:08:47.607Z,428.6923
2023-05-13T08:09:49.105Z,425.7692
2023-05-13T08:10:50.560Z,424.3846
2023-05-13T08:11:51.994Z,425.6154
2023-05-13T08:12:53.298Z,428.0000
2023-05-13T08:13:54.856Z,432.3077
2023-05-13T08:14:56.262Z,430.6154
2023-05-13T08:15:57.678Z,428.3846
2023-05-13T08:16:59.047Z,428.6154
2023-05-13T08:18:00.660Z,425.9231
2023-05-13T08:19:02.011Z,426.2308
2023-05-13T08:20:03.851Z,428.0000
2023-05-13T08:21:04.877Z,428.9231
2023-05-13T08:22:06.191Z,427.7692
2023-05-13T08:23:07.648Z,426.8462
2023-05-13T08:24:09.131Z,429.2308
2023-05-13T08:25:10.457Z,429.5385
2023-05-13T08:26:11.913Z,429.7692
2023-05-13T08:27:13.411Z,429.0769
2023-05-13T08:28:14.823Z,428.0000
2023-05-13T08:29:16.165Z,428.1538
2023-05-13T08:30:17.607Z,429.7692
2023-05-13T08:31:19.068Z,429.8462
2023-05-13T08:32:20.472Z,430.1538
2023-05-13T08:33:21.876Z,429.4615
2023-05-13T08:34:23.987Z,425.4615
2023-05-13T08:35:24.854Z,425.2308
2023-05-13T08:36:26.193Z,424.3846
2023-05-13T08:37:27.543Z,426.3846
2023-05-13T08:38:29.011Z,426.4615
2023-05-13T08:39:30.457Z,424.1538
2023-05-13T08:40:31.803Z,424.9231
2023-05-13T08:41:33.213Z,423.9231
2023-05-13T08:42:34.642Z,426.6154
2023-05-13T08:43:36.104Z,429.7692
2023-05-13T08:44:37.590Z,431.3846
2023-05-13T08:45:38.947Z,430.8462
2023-05-13T08:46:40.411Z,431.6923
2023-05-13T08:47:41.673Z,432.1538
2023-05-13T08:48:43.263Z,432.1538
2023-05-13T08:49:44.690Z,431.0000
2023-05-13T08:50:46.027Z,429.5385
2023-05-13T08:51:47.610Z,430.6923
2023-05-13T08:52:48.879Z,431.6923
2023-05-13T08:53:50.315Z,432.4615
2023-05-13T08:54:51.751Z,435.2308
2023-05-13T08:55:53.176Z,433.2308
2023-05-13T08:56:54.593Z,428.7692
2023-05-13T08:57:55.990Z,428.8462
2023-05-13T08:58:57.475Z,429.1538
2023-05-13T08:59:58.874Z,430.9231
2023-05-13T09:01:00.371Z,430.5385
2023-05-13T09:02:01.702Z,432.4615
2023-05-13T09:03:03.147Z,435.4615
2023-05-13T09:04:04.634Z,435.9231
2023-05-13T09:05:05.996Z,434.0000
2023-05-13T09:06:07.397Z,435.3077
2023-05-13T09:07:08.796Z,434.6923
2023-05-13T09:08:10.311Z,432.8462
2023-05-13T09:09:11.676Z,433.0769
2023-05-13T09:10:13.153Z,431.9231
2023-05-13T09:11:14.451Z,433.3077
2023-05-13T09:12:15.920Z,432.2308
2023-05-13T09:13:17.336Z,431.7692
2023-05-13T09:14:18.881Z,427.6923
2023-05-13T09:15:20.437Z,428.3846
2023-05-13T09:16:21.646Z,432.7692
2023-05-13T09:17:22.986Z,432.1538
2023-05-13T09:18:24.838Z,431.6154
2023-05-13T09:19:25.945Z,431.6154
2023-05-13T09:20:27.342Z,433.6923
2023-05-13T09:21:28.803Z,434.4615
2023-05-13T09:22:30.115Z,433.9231
2023-05-13T09:23:31.657Z,435.0000
2023-05-13T09:24:33.141Z,435.8462
2023-05-13T09:25:34.523Z,435.9231
2023-05-13T09:26:35.936Z,436.0769
2023-05-13T09:27:37.358Z,436.8462
2023-05-13T09:28:38.829Z,438.0769
2023-05-13T09:29:40.211Z,436.3077
2023-05-13T09:30:43.299Z,434.6923
2023-05-13T09:31:43.020Z,435.2308
2023-05-13T09:32:44.494Z,435.0000
2023-05-13T09:33:45.788Z,435.6154
2023-05-13T09:34:47.402Z,435.6154
2023-05-13T09:35:48.800Z,435.0769
2023-05-13T09:36:51.242Z,434.3846
2023-05-13T09:37:51.565Z,434.2308
2023-05-13T09:38:53.063Z,430.3077
2023-05-13T09:39:54.464Z,430.0000
2023-05-13T09:40:56.140Z,430.7692
2023-05-13T09:41:57.306Z,432.5385
2023-05-13T09:42:58.686Z,434.7692
2023-05-13T09:44:00.155Z,436.2308
2023-05-13T09:45:01.601Z,436.4615
2023-05-13T09:46:02.997Z,435.3846
2023-05-13T09:47:04.408Z,435.0769
2023-05-13T09:48:05.870Z,433.4615
2023-05-13T09:49:07.300Z,434.8462
2023-05-13T09:50:08.728Z,430.1538
2023-05-13T09:51:10.172Z,428.5385
2023-05-13T09:52:11.670Z,431.5385
2023-05-13T09:53:12.941Z,432.9231
2023-05-13T09:54:14.338Z,431.1538
2023-05-13T09:55:15.893Z,432.2308
2023-05-13T09:56:17.257Z,434.0769
2023-05-13T09:57:18.618Z,436.7692
2023-05-13T09:58:20.017Z,435.3846
2023-05-13T09:59:21.529Z,437.6923
2023-05-13T10:00:32.094Z,438.3077
2023-05-13T10:01:24.408Z,438.7500
2023-05-13T10:02:25.818Z,438.0000
2023-05-13T10:03:27.169Z,438.4615
2023-05-13T10:04:28.672Z,441.2308
2023-05-13T10:05:30.111Z,438.4615
2023-05-13T10:06:31.517Z,439.4615
2023-05-13T10:07:32.893Z,439.7692
2023-05-13T10:08:34.309Z,439.0000
2023-05-13T10:09:35.677Z,437.6923
2023-05-13T10:10:37.236Z,436.4615
2023-05-13T10:11:38.674Z,435.2308
2023-05-13T10:12:40.067Z,435.5385
2023-05-13T10:13:41.421Z,437.1538
2023-05-13T10:14:42.964Z,436.8462
2023-05-13T10:15:44.336Z,436.3077
2023-05-13T10:16:45.773Z,436.5385
2023-05-13T10:17:47.127Z,437.9231
2023-05-13T10:18:48.562Z,435.5385
2023-05-13T10:19:50.025Z,434.4615
2023-05-13T10:20:51.247Z,435.1538
2023-05-13T10:21:52.854Z,435.6923
2023-05-13T10:22:54.210Z,440.0000
2023-05-13T10:23:55.602Z,440.0769
2023-05-13T10:24:57.100Z,440.4615
2023-05-13T10:25:58.488Z,440.6923
2023-05-13T10:26:59.928Z,437.6154
2023-05-13T10:28:01.342Z,437.1538
2023-05-13T10:29:02.713Z,436.2308
2023-05-13T10:30:04.205Z,437.8462
2023-05-13T10:31:05.642Z,439.7692
2023-05-13T10:32:07.062Z,441.5385
2023-05-13T10:33:08.472Z,441.0769
2023-05-13T10:34:09.805Z,440.9231
2023-05-13T10:35:11.283Z,441.3077
2023-05-13T10:36:12.689Z,440.6923
2023-05-13T10:37:14.151Z,440.4615
2023-05-13T10:38:15.599Z,436.7692
2023-05-13T10:39:17.010Z,435.6923
2023-05-13T10:40:18.385Z,435.6154
2023-05-13T10:41:19.838Z,437.5385
2023-05-13T10:42:21.230Z,436.9231
2023-05-13T10:43:22.643Z,437.4615
2023-05-13T10:44:24.079Z,439.1538
2023-05-13T10:45:25.578Z,442.0000
2023-05-13T10:46:26.951Z,440.5385
2023-05-13T10:47:28.539Z,438.6154
2023-05-13T10:48:29.744Z,440.0769
2023-05-13T10:49:31.309Z,439.6154
2023-05-13T10:50:32.641Z,437.3077
2023-05-13T10:51:34.131Z,436.9231
2023-05-13T10:52:35.421Z,438.4615
2023-05-13T10:53:36.772Z,439.9231
2023-05-13T10:54:38.293Z,438.1538
2023-05-13T10:55:39.656Z,435.5385
2023-05-13T10:56:42.108Z,435.6154
2023-05-13T10:57:42.547Z,436.2308
2023-05-13T10:58:43.996Z,435.8462
2023-05-13T10:59:45.392Z,436.5385
2023-05-13T11:00:46.731Z,437.3077
2023-05-13T11:01:48.380Z,440.1538
2023-05-13T11:02:49.886Z,439.3077
2023-05-13T11:03:51.089Z,437.6154
2023-05-13T11:04:52.647Z,436.2308
2023-05-13T11:05:53.947Z,436.1538
2023-05-13T11:06:55.464Z,434.5385
2023-05-13T11:07:56.877Z,434.2308
2023-05-13T11:08:58.303Z,434.1538
2023-05-13T11:09:59.697Z,435.4615
2023-05-13T11:11:01.166Z,437.6154
2023-05-13T11:12:02.531Z,436.5385
2023-05-13T11:13:03.936Z,435.0769
2023-05-13T11:14:07.053Z,435.6154
2023-05-13T11:15:06.789Z,438.0769
2023-05-13T11:16:08.239Z,437.3077
2023-05-13T11:17:09.770Z,438.1538
2023-05-13T11:18:11.161Z,438.7692
2023-05-13T11:19:12.612Z,438.0000
2023-05-13T11:20:13.895Z,437.3846
2023-05-13T11:21:15.350Z,436.6154
2023-05-13T11:22:16.770Z,435.6923
2023-05-13T11:23:18.209Z,436.6923
2023-05-13T11:24:19.575Z,437.5385
2023-05-13T11:25:21.086Z,437.8462
2023-05-13T11:26:22.411Z,436.3077
2023-05-13T11:27:23.878Z,433.6154
2023-05-13T11:28:25.295Z,431.3077
2023-05-13T11:29:26.728Z,429.8462
2023-05-13T11:30:28.430Z,431.3077
2023-05-13T11:31:29.565Z,434.8462
2023-05-13T11:32:30.957Z,434.0769
2023-05-13T11:33:32.501Z,434.4615
2023-05-13T11:34:33.809Z,436.0769
2023-05-13T11:35:35.288Z,437.0769
2023-05-13T11:36:36.631Z,433.8462
2023-05-13T11:37:38.077Z,429.7692
2023-05-13T11:38:39.490Z,430.8462
2023-05-13T11:39:40.967Z,431.7692
2023-05-13T11:40:42.314Z,433.3077
2023-05-13T11:41:43.809Z,431.8462
2023-05-13T11:42:45.181Z,430.6923
2023-05-13T11:43:46.520Z,430.9231
2023-05-13T11:44:47.965Z,428.6154
2023-05-13T11:45:49.519Z,425.9231
2023-05-13T11:46:50.823Z,426.2308
2023-05-13T11:47:52.275Z,427.8462
2023-05-13T11:48:53.719Z,426.7692
2023-05-13T11:49:55.137Z,429.0000
2023-05-13T11:50:56.462Z,430.4615
2023-05-13T11:51:58.003Z,429.6154
2023-05-13T11:52:59.269Z,426.9231
2023-05-13T11:54:00.752Z,427.7692
2023-05-13T11:55:02.217Z,428.0769
2023-05-13T11:56:03.607Z,428.4615
2023-05-13T11:57:05.053Z,427.9231
2023-05-13T11:58:06.470Z,430.2308
2023-05-13T11:59:07.869Z,429.9231
2023-05-13T12:00:09.329Z,428.4615
2023-05-13T12:01:10.737Z,428.4615